Terminal Aerodrome Forecast
Issued by NWS

Home | Current Version | Previous Version | Text Only | Print | Product List | Glossary On
Versions: 1 2 3 4 5 6 7 8 9 10 11 12 13 14 15 16 17 18 19 20 21 22 23 24 25 26 27
000
FTUS43 KLSX 181300 AAA
TAFUIN
TAF AMD
KUIN 181346Z 1814/1912 07004KT 2SM -SN OVC025
     FM181600 07004KT 4SM -SN OVC025
     FM182100 07004KT 6SM -SN OVC010
     FM190000 07003KT 5SM BR OVC008=

USA.gov is the U.S. government's official web portal to all federal, state and local government web resources and services.